Hume, California
Current Conditions -  °F | °C
As of 7:15 PM on Friday 21 Nov 2014 (Local Time) from KVIS Reporting Station
Overcast Overcast  
Wind Chill: 54°   Ceiling: 2000
Heat Index: 54°   Visibility: 8mi
Dew Point: 45°   Wind: 0mph
Humidity: 72%   Direction: NA
Pressure: 30.16"   Gusts: NA
Location:  36.78°N, 118.91°W
Report Text: KVIS 220315Z 00000KT 8SM OVC020 12/07 A3016 RMK AO1
Loading
Personal Weather Stations






























Interactive Weather Map New forecast layout! Learn more

10-Day Weather Forecast

Advertisements
Track Severe Weather on mobile